Terminal Aerodrome Forecast
Issued by NWS

Home | Current Version | Previous Version | Text Only | Print | Product List | Glossary On
Versions: 1 2 3 4 5 6 7 8 9 10 11 12 13 14 15 16 17 18 19 20 21 22 23 24 25 26 27 28 29 30 31 32 33 34 35 36 37 38 39 40 41 42 43 44
000
FTUS45 KGJT 251140
TAFMTJ
TAF
KMTJ 251140Z 2512/2612 13008KT P6SM FEW250
     FM251800 27007KT P6SM BKN150
     FM252100 23011G19KT P6SM VCSH BKN070 OVC110
     FM260400 15006KT P6SM VCSH OVC070
     FM261000 14005KT P6SM OVC040=

USA.gov is the U.S. government's official web portal to all federal, state and local government web resources and services.